sensor_id;sensor_type;location;lat;lon;timestamp;temperature;humidity
24091;DHT22;12272;52.426;17.100;2023-11-21T00:04:50;7.80;99.90
24091;DHT22;12272;52.426;17.100;2023-11-21T00:09:53;7.90;99.90
24091;DHT22;12272;52.426;17.100;2023-11-21T00:14:58;7.90;99.90
24091;DHT22;12272;52.426;17.100;2023-11-21T00:20:01;7.90;99.90
24091;DHT22;12272;52.426;17.100;2023-11-21T00:25:04;7.80;99.90
24091;DHT22;12272;52.426;17.100;2023-11-21T00:30:07;7.80;99.90
24091;DHT22;12272;52.426;17.100;2023-11-21T00:35:10;8.50;99.90
24091;DHT22;12272;52.426;17.100;2023-11-21T00:40:13;8.10;99.90
24091;DHT22;12272;52.426;17.100;2023-11-21T00:45:17;8.00;99.90
24091;DHT22;12272;52.426;17.100;2023-11-21T00:50:21;8.20;99.90
24091;DHT22;12272;52.426;17.100;2023-11-21T00:55:24;8.50;99.90
24091;DHT22;12272;52.426;17.100;2023-11-21T01:00:27;8.10;99.90
24091;DHT22;12272;52.426;17.100;2023-11-21T01:05:30;8.20;99.90
24091;DHT22;12272;52.426;17.100;2023-11-21T01:10:32;8.40;99.90
24091;DHT22;12272;52.426;17.100;2023-11-21T01:15:36;8.20;99.90
24091;DHT22;12272;52.426;17.100;2023-11-21T01:20:39;8.40;99.90
24091;DHT22;12272;52.426;17.100;2023-11-21T01:30:45;8.90;99.90
24091;DHT22;12272;52.426;17.100;2023-11-21T01:35:48;9.30;99.90
24091;DHT22;12272;52.426;17.100;2023-11-21T01:40:50;9.00;99.90
24091;DHT22;12272;52.426;17.100;2023-11-21T01:45:54;9.30;99.90
24091;DHT22;12272;52.426;17.100;2023-11-21T01:50:59;9.50;99.90
24091;DHT22;12272;52.426;17.100;2023-11-21T01:56:01;8.80;99.90
24091;DHT22;12272;52.426;17.100;2023-11-21T02:01:04;7.90;99.90
24091;DHT22;12272;52.426;17.100;2023-11-21T02:06:07;7.50;99.90
24091;DHT22;12272;52.426;17.100;2023-11-21T02:11:11;8.40;99.90
24091;DHT22;12272;52.426;17.100;2023-11-21T02:16:16;8.90;99.90
24091;DHT22;12272;52.426;17.100;2023-11-21T02:21:19;9.00;99.90
24091;DHT22;12272;52.426;17.100;2023-11-21T02:26:21;8.80;99.90
24091;DHT22;12272;52.426;17.100;2023-11-21T02:31:24;8.90;99.90
24091;DHT22;12272;52.426;17.100;2023-11-21T02:36:26;9.40;99.90
24091;DHT22;12272;52.426;17.100;2023-11-21T02:41:29;8.40;99.90
24091;DHT22;12272;52.426;17.100;2023-11-21T02:46:32;8.00;99.90
24091;DHT22;12272;52.426;17.100;2023-11-21T02:51:36;7.30;99.90
24091;DHT22;12272;52.426;17.100;2023-11-21T02:56:41;7.30;99.90
24091;DHT22;12272;52.426;17.100;2023-11-21T03:01:43;7.30;99.90
24091;DHT22;12272;52.426;17.100;2023-11-21T03:06:46;7.30;99.90
24091;DHT22;12272;52.426;17.100;2023-11-21T03:11:50;7.30;99.90
24091;DHT22;12272;52.426;17.100;2023-11-21T03:16:52;7.60;99.90
24091;DHT22;12272;52.426;17.100;2023-11-21T03:21:55;7.20;99.90
24091;DHT22;12272;52.426;17.100;2023-11-21T03:26:58;7.90;99.90
24091;DHT22;12272;52.426;17.100;2023-11-21T03:32:01;8.10;99.90
24091;DHT22;12272;52.426;17.100;2023-11-21T03:37:04;8.00;99.90
24091;DHT22;12272;52.426;17.100;2023-11-21T03:42:06;7.90;99.90
24091;DHT22;12272;52.426;17.100;2023-11-21T03:47:09;7.00;99.90
24091;DHT22;12272;52.426;17.100;2023-11-21T03:52:11;6.50;99.90
24091;DHT22;12272;52.426;17.100;2023-11-21T03:57:14;6.30;99.90
24091;DHT22;12272;52.426;17.100;2023-11-21T04:02:17;6.70;99.90
24091;DHT22;12272;52.426;17.100;2023-11-21T04:07:19;6.60;99.90
24091;DHT22;12272;52.426;17.100;2023-11-21T04:12:24;6.20;99.90
24091;DHT22;12272;52.426;17.100;2023-11-21T04:17:26;6.30;99.90
24091;DHT22;12272;52.426;17.100;2023-11-21T04:22:29;6.20;99.90
24091;DHT22;12272;52.426;17.100;2023-11-21T04:27:31;5.70;99.90
24091;DHT22;12272;52.426;17.100;2023-11-21T04:32:34;6.40;99.90
24091;DHT22;12272;52.426;17.100;2023-11-21T04:37:37;6.00;99.90
24091;DHT22;12272;52.426;17.100;2023-11-21T04:42:39;6.20;99.90
24091;DHT22;12272;52.426;17.100;2023-11-21T04:47:42;6.30;99.90
24091;DHT22;12272;52.426;17.100;2023-11-21T04:52:46;6.50;99.90
24091;DHT22;12272;52.426;17.100;2023-11-21T04:57:48;6.70;99.90
24091;DHT22;12272;52.426;17.100;2023-11-21T05:02:51;6.40;99.90
24091;DHT22;12272;52.426;17.100;2023-11-21T05:07:55;5.80;99.90
24091;DHT22;12272;52.426;17.100;2023-11-21T05:12:57;6.70;99.90
24091;DHT22;12272;52.426;17.100;2023-11-21T05:18:00;6.80;99.90
24091;DHT22;12272;52.426;17.100;2023-11-21T05:23:03;6.70;99.90
24091;DHT22;12272;52.426;17.100;2023-11-21T05:28:05;6.80;99.90
24091;DHT22;12272;52.426;17.100;2023-11-21T05:33:08;7.10;99.90
24091;DHT22;12272;52.426;17.100;2023-11-21T05:38:12;6.80;99.90
24091;DHT22;12272;52.426;17.100;2023-11-21T05:43:14;6.60;99.90
24091;DHT22;12272;52.426;17.100;2023-11-21T05:48:18;6.20;99.90
24091;DHT22;12272;52.426;17.100;2023-11-21T05:53:20;6.40;99.90
24091;DHT22;12272;52.426;17.100;2023-11-21T05:58:24;6.30;99.90
24091;DHT22;12272;52.426;17.100;2023-11-21T06:03:26;5.50;99.90
24091;DHT22;12272;52.426;17.100;2023-11-21T06:08:29;6.30;99.90
24091;DHT22;12272;52.426;17.100;2023-11-21T06:13:32;6.80;99.90
24091;DHT22;12272;52.426;17.100;2023-11-21T06:18:34;6.20;99.90
24091;DHT22;12272;52.426;17.100;2023-11-21T06:23:37;5.80;99.90
24091;DHT22;12272;52.426;17.100;2023-11-21T06:28:40;6.00;99.90
24091;DHT22;12272;52.426;17.100;2023-11-21T06:33:43;6.50;99.90
24091;DHT22;12272;52.426;17.100;2023-11-21T06:38:46;6.10;99.90
24091;DHT22;12272;52.426;17.100;2023-11-21T06:43:48;6.10;99.90
24091;DHT22;12272;52.426;17.100;2023-11-21T06:48:52;6.30;99.90
24091;DHT22;12272;52.426;17.100;2023-11-21T06:53:54;3.60;99.90
24091;DHT22;12272;52.426;17.100;2023-11-21T06:58:57;3.50;99.90
24091;DHT22;12272;52.426;17.100;2023-11-21T07:03:59;3.50;99.90
24091;DHT22;12272;52.426;17.100;2023-11-21T07:09:02;5.10;99.90
24091;DHT22;12272;52.426;17.100;2023-11-21T07:14:05;5.80;99.90
24091;DHT22;12272;52.426;17.100;2023-11-21T07:19:09;5.30;99.90
24091;DHT22;12272;52.426;17.100;2023-11-21T07:24:13;5.30;99.90
24091;DHT22;12272;52.426;17.100;2023-11-21T07:29:16;5.10;99.90
24091;DHT22;12272;52.426;17.100;2023-11-21T07:34:20;5.40;99.90
24091;DHT22;12272;52.426;17.100;2023-11-21T07:39:23;5.30;99.90
24091;DHT22;12272;52.426;17.100;2023-11-21T07:44:26;4.90;99.90
24091;DHT22;12272;52.426;17.100;2023-11-21T07:49:28;4.90;99.90
24091;DHT22;12272;52.426;17.100;2023-11-21T07:54:31;4.90;99.90
24091;DHT22;12272;52.426;17.100;2023-11-21T08:04:36;5.60;99.90
24091;DHT22;12272;52.426;17.100;2023-11-21T08:09:39;5.70;99.90
24091;DHT22;12272;52.426;17.100;2023-11-21T08:14:41;5.80;99.90
24091;DHT22;12272;52.426;17.100;2023-11-21T08:19:45;5.30;99.90
24091;DHT22;12272;52.426;17.100;2023-11-21T08:24:51;5.60;99.90
24091;DHT22;12272;52.426;17.100;2023-11-21T08:29:54;5.90;99.90
24091;DHT22;12272;52.426;17.100;2023-11-21T08:34:57;5.50;99.90
24091;DHT22;12272;52.426;17.100;2023-11-21T08:39:59;5.20;99.90
24091;DHT22;12272;52.426;17.100;2023-11-21T08:45:02;4.80;99.90
24091;DHT22;12272;52.426;17.100;2023-11-21T08:50:06;4.80;99.90
24091;DHT22;12272;52.426;17.100;2023-11-21T08:55:10;4.40;99.90
24091;DHT22;12272;52.426;17.100;2023-11-21T09:00:15;4.40;99.90
24091;DHT22;12272;52.426;17.100;2023-11-21T09:05:19;4.60;99.90
24091;DHT22;12272;52.426;17.100;2023-11-21T09:10:23;4.80;99.90
24091;DHT22;12272;52.426;17.100;2023-11-21T09:15:28;5.10;99.90
24091;DHT22;12272;52.426;17.100;2023-11-21T09:20:30;5.10;99.90
24091;DHT22;12272;52.426;17.100;2023-11-21T09:25:33;4.90;99.90
24091;DHT22;12272;52.426;17.100;2023-11-21T09:30:36;5.10;99.90
24091;DHT22;12272;52.426;17.100;2023-11-21T09:35:38;5.10;99.90
24091;DHT22;12272;52.426;17.100;2023-11-21T09:40:41;4.90;99.90
24091;DHT22;12272;52.426;17.100;2023-11-21T09:45:48;5.10;99.90
24091;DHT22;12272;52.426;17.100;2023-11-21T09:50:53;4.80;99.90
24091;DHT22;12272;52.426;17.100;2023-11-21T09:55:56;5.20;99.90
24091;DHT22;12272;52.426;17.100;2023-11-21T10:00:59;5.00;99.90
24091;DHT22;12272;52.426;17.100;2023-11-21T10:06:05;4.20;99.90
24091;DHT22;12272;52.426;17.100;2023-11-21T10:11:09;4.30;99.90
24091;DHT22;12272;52.426;17.100;2023-11-21T10:16:16;4.70;99.90
24091;DHT22;12272;52.426;17.100;2023-11-21T10:21:21;4.90;99.90
24091;DHT22;12272;52.426;17.100;2023-11-21T10:26:26;4.90;99.90
24091;DHT22;12272;52.426;17.100;2023-11-21T10:31:33;5.00;99.90
24091;DHT22;12272;52.426;17.100;2023-11-21T10:36:39;4.80;99.90
24091;DHT22;12272;52.426;17.100;2023-11-21T10:41:44;4.40;99.90
24091;DHT22;12272;52.426;17.100;2023-11-21T10:46:52;4.30;99.90
24091;DHT22;12272;52.426;17.100;2023-11-21T10:51:59;4.40;99.90
24091;DHT22;12272;52.426;17.100;2023-11-21T10:57:04;4.80;99.90
24091;DHT22;12272;52.426;17.100;2023-11-21T11:02:23;5.50;99.90
24091;DHT22;12272;52.426;17.100;2023-11-21T11:07:36;5.90;99.90
24091;DHT22;12272;52.426;17.100;2023-11-21T11:12:42;5.00;99.90
24091;DHT22;12272;52.426;17.100;2023-11-21T11:17:48;4.60;99.90
24091;DHT22;12272;52.426;17.100;2023-11-21T11:28:11;5.00;99.90
24091;DHT22;12272;52.426;17.100;2023-11-21T11:38:45;5.30;99.90
24091;DHT22;12272;52.426;17.100;2023-11-21T11:43:48;5.30;99.90
24091;DHT22;12272;52.426;17.100;2023-11-21T11:49:02;5.30;99.90
24091;DHT22;12272;52.426;17.100;2023-11-21T11:54:06;5.50;99.90
24091;DHT22;12272;52.426;17.100;2023-11-21T12:04:41;4.90;99.90
24091;DHT22;12272;52.426;17.100;2023-11-21T12:09:44;4.20;99.90
24091;DHT22;12272;52.426;17.100;2023-11-21T12:14:49;4.50;99.90
24091;DHT22;12272;52.426;17.100;2023-11-21T12:19:52;4.40;99.90
24091;DHT22;12272;52.426;17.100;2023-11-21T12:24:54;4.30;99.90
24091;DHT22;12272;52.426;17.100;2023-11-21T12:29:57;4.50;99.90
24091;DHT22;12272;52.426;17.100;2023-11-21T12:35:00;5.00;99.90
24091;DHT22;12272;52.426;17.100;2023-11-21T12:40:08;4.70;99.90
24091;DHT22;12272;52.426;17.100;2023-11-21T12:50:20;4.90;99.90
24091;DHT22;12272;52.426;17.100;2023-11-21T12:55:25;5.40;99.90
24091;DHT22;12272;52.426;17.100;2023-11-21T13:00:32;5.10;99.90
24091;DHT22;12272;52.426;17.100;2023-11-21T13:05:39;4.60;99.90
24091;DHT22;12272;52.426;17.100;2023-11-21T13:10:44;4.40;99.90
24091;DHT22;12272;52.426;17.100;2023-11-21T13:15:55;4.40;99.90
24091;DHT22;12272;52.426;17.100;2023-11-21T13:21:02;4.10;99.90
24091;DHT22;12272;52.426;17.100;2023-11-21T13:26:07;4.20;99.90
24091;DHT22;12272;52.426;17.100;2023-11-21T13:31:11;4.50;99.90
24091;DHT22;12272;52.426;17.100;2023-11-21T13:36:25;4.00;99.90
24091;DHT22;12272;52.426;17.100;2023-11-21T13:41:28;4.00;99.90
24091;DHT22;12272;52.426;17.100;2023-11-21T13:46:33;3.70;99.90
24091;DHT22;12272;52.426;17.100;2023-11-21T13:51:40;4.10;99.90
24091;DHT22;12272;52.426;17.100;2023-11-21T13:56:47;4.00;99.90
24091;DHT22;12272;52.426;17.100;2023-11-21T14:01:50;4.20;99.90
24091;DHT22;12272;52.426;17.100;2023-11-21T14:06:56;4.00;99.90
24091;DHT22;12272;52.426;17.100;2023-11-21T14:11:58;4.90;99.90
24091;DHT22;12272;52.426;17.100;2023-11-21T14:17:02;5.20;99.90
24091;DHT22;12272;52.426;17.100;2023-11-21T14:22:10;4.40;99.90
24091;DHT22;12272;52.426;17.100;2023-11-21T14:27:13;4.30;99.90
24091;DHT22;12272;52.426;17.100;2023-11-21T14:32:17;4.30;99.90
24091;DHT22;12272;52.426;17.100;2023-11-21T14:37:20;4.20;99.90
24091;DHT22;12272;52.426;17.100;2023-11-21T14:42:22;4.00;99.90
24091;DHT22;12272;52.426;17.100;2023-11-21T14:47:27;3.90;99.90
24091;DHT22;12272;52.426;17.100;2023-11-21T14:52:30;4.00;99.90
24091;DHT22;12272;52.426;17.100;2023-11-21T14:57:37;3.80;99.90
24091;DHT22;12272;52.426;17.100;2023-11-21T15:02:40;4.10;99.90
24091;DHT22;12272;52.426;17.100;2023-11-21T15:07:53;4.20;99.90
24091;DHT22;12272;52.426;17.100;2023-11-21T15:12:58;3.70;99.90
24091;DHT22;12272;52.426;17.100;2023-11-21T15:18:01;4.10;99.90
24091;DHT22;12272;52.426;17.100;2023-11-21T15:23:04;4.00;99.90
24091;DHT22;12272;52.426;17.100;2023-11-21T15:28:08;4.10;99.90
24091;DHT22;12272;52.426;17.100;2023-11-21T15:33:10;3.70;99.90
24091;DHT22;12272;52.426;17.100;2023-11-21T15:38:14;4.00;99.90
24091;DHT22;12272;52.426;17.100;2023-11-21T15:43:17;3.90;99.90
24091;DHT22;12272;52.426;17.100;2023-11-21T15:48:19;4.10;99.90
24091;DHT22;12272;52.426;17.100;2023-11-21T15:53:21;3.90;99.90
24091;DHT22;12272;52.426;17.100;2023-11-21T15:58:24;3.80;99.90
24091;DHT22;12272;52.426;17.100;2023-11-21T16:03:28;3.60;99.90
24091;DHT22;12272;52.426;17.100;2023-11-21T16:08:31;3.70;99.90
24091;DHT22;12272;52.426;17.100;2023-11-21T16:13:34;3.70;99.90
24091;DHT22;12272;52.426;17.100;2023-11-21T16:18:37;3.70;99.90
24091;DHT22;12272;52.426;17.100;2023-11-21T16:23:39;3.80;99.90
24091;DHT22;12272;52.426;17.100;2023-11-21T16:28:41;3.60;99.90
24091;DHT22;12272;52.426;17.100;2023-11-21T16:33:44;3.40;99.90
24091;DHT22;12272;52.426;17.100;2023-11-21T16:38:46;3.60;99.90
24091;DHT22;12272;52.426;17.100;2023-11-21T16:43:49;3.80;99.90
24091;DHT22;12272;52.426;17.100;2023-11-21T16:48:52;3.60;99.90
24091;DHT22;12272;52.426;17.100;2023-11-21T16:53:55;3.90;99.90
24091;DHT22;12272;52.426;17.100;2023-11-21T16:58:57;4.60;99.90
24091;DHT22;12272;52.426;17.100;2023-11-21T17:04:00;5.00;99.90
24091;DHT22;12272;52.426;17.100;2023-11-21T17:09:03;4.80;99.90
24091;DHT22;12272;52.426;17.100;2023-11-21T17:14:07;4.50;99.90
24091;DHT22;12272;52.426;17.100;2023-11-21T17:19:10;4.20;99.90
24091;DHT22;12272;52.426;17.100;2023-11-21T17:24:13;4.00;99.90
24091;DHT22;12272;52.426;17.100;2023-11-21T17:29:16;4.10;99.90
24091;DHT22;12272;52.426;17.100;2023-11-21T17:34:18;4.10;99.90
24091;DHT22;12272;52.426;17.100;2023-11-21T17:39:22;4.10;99.90
24091;DHT22;12272;52.426;17.100;2023-11-21T17:44:25;4.40;99.90
24091;DHT22;12272;52.426;17.100;2023-11-21T17:49:28;4.00;99.90
24091;DHT22;12272;52.426;17.100;2023-11-21T17:54:32;3.70;99.90
24091;DHT22;12272;52.426;17.100;2023-11-21T17:59:37;3.80;99.90
24091;DHT22;12272;52.426;17.100;2023-11-21T18:04:41;3.70;99.90
24091;DHT22;12272;52.426;17.100;2023-11-21T18:09:43;3.60;99.90
24091;DHT22;12272;52.426;17.100;2023-11-21T18:14:46;3.80;99.90
24091;DHT22;12272;52.426;17.100;2023-11-21T18:19:53;3.60;99.90
24091;DHT22;12272;52.426;17.100;2023-11-21T18:24:57;3.50;99.90
24091;DHT22;12272;52.426;17.100;2023-11-21T18:30:00;3.70;99.90
24091;DHT22;12272;52.426;17.100;2023-11-21T18:35:02;3.50;99.90
24091;DHT22;12272;52.426;17.100;2023-11-21T18:40:06;3.40;99.90
24091;DHT22;12272;52.426;17.100;2023-11-21T18:45:09;3.30;99.90
24091;DHT22;12272;52.426;17.100;2023-11-21T18:50:15;3.10;99.90
24091;DHT22;12272;52.426;17.100;2023-11-21T18:55:19;3.50;99.90
24091;DHT22;12272;52.426;17.100;2023-11-21T19:00:22;3.50;99.90
24091;DHT22;12272;52.426;17.100;2023-11-21T19:05:25;3.50;99.90
24091;DHT22;12272;52.426;17.100;2023-11-21T19:10:28;3.70;99.90
24091;DHT22;12272;52.426;17.100;2023-11-21T19:15:32;3.70;99.90
24091;DHT22;12272;52.426;17.100;2023-11-21T19:20:34;3.50;99.90
24091;DHT22;12272;52.426;17.100;2023-11-21T19:25:37;3.50;99.90
24091;DHT22;12272;52.426;17.100;2023-11-21T19:30:40;3.90;99.90
24091;DHT22;12272;52.426;17.100;2023-11-21T19:35:45;3.40;99.90
24091;DHT22;12272;52.426;17.100;2023-11-21T19:40:50;3.50;99.90
24091;DHT22;12272;52.426;17.100;2023-11-21T19:45:54;3.40;99.90
24091;DHT22;12272;52.426;17.100;2023-11-21T19:50:58;3.10;99.90
24091;DHT22;12272;52.426;17.100;2023-11-21T19:56:01;3.10;99.90
24091;DHT22;12272;52.426;17.100;2023-11-21T20:01:04;2.90;99.90
24091;DHT22;12272;52.426;17.100;2023-11-21T20:06:07;2.90;99.90
24091;DHT22;12272;52.426;17.100;2023-11-21T20:11:11;3.00;99.90
24091;DHT22;12272;52.426;17.100;2023-11-21T20:16:14;3.30;99.90
24091;DHT22;12272;52.426;17.100;2023-11-21T20:21:23;3.40;99.90
24091;DHT22;12272;52.426;17.100;2023-11-21T20:26:26;3.60;99.90
24091;DHT22;12272;52.426;17.100;2023-11-21T20:31:28;3.30;99.90
24091;DHT22;12272;52.426;17.100;2023-11-21T20:36:31;3.20;99.90
24091;DHT22;12272;52.426;17.100;2023-11-21T20:41:33;3.30;99.90
24091;DHT22;12272;52.426;17.100;2023-11-21T20:46:40;3.40;99.90
24091;DHT22;12272;52.426;17.100;2023-11-21T20:51:46;3.40;99.90
24091;DHT22;12272;52.426;17.100;2023-11-21T20:56:48;3.10;99.90
24091;DHT22;12272;52.426;17.100;2023-11-21T21:01:51;3.80;99.90
24091;DHT22;12272;52.426;17.100;2023-11-21T21:06:53;3.30;99.90
24091;DHT22;12272;52.426;17.100;2023-11-21T21:11:56;3.10;99.90
24091;DHT22;12272;52.426;17.100;2023-11-21T21:16:59;2.60;99.90
24091;DHT22;12272;52.426;17.100;2023-11-21T21:22:03;3.30;99.90
24091;DHT22;12272;52.426;17.100;2023-11-21T21:27:06;3.90;99.90
24091;DHT22;12272;52.426;17.100;2023-11-21T21:32:09;3.60;99.90
24091;DHT22;12272;52.426;17.100;2023-11-21T21:37:11;2.90;99.90
24091;DHT22;12272;52.426;17.100;2023-11-21T21:42:14;3.10;99.90
24091;DHT22;12272;52.426;17.100;2023-11-21T21:47:16;3.30;99.90
24091;DHT22;12272;52.426;17.100;2023-11-21T21:52:19;3.30;99.90
24091;DHT22;12272;52.426;17.100;2023-11-21T21:57:21;3.50;99.90
24091;DHT22;12272;52.426;17.100;2023-11-21T22:02:24;2.70;99.90
24091;DHT22;12272;52.426;17.100;2023-11-21T22:07:26;2.80;99.90
24091;DHT22;12272;52.426;17.100;2023-11-21T22:12:29;2.70;99.90
24091;DHT22;12272;52.426;17.100;2023-11-21T22:17:31;2.70;99.90
24091;DHT22;12272;52.426;17.100;2023-11-21T22:22:34;3.10;99.90
24091;DHT22;12272;52.426;17.100;2023-11-21T22:27:37;2.90;99.90
24091;DHT22;12272;52.426;17.100;2023-11-21T22:32:39;3.00;99.90
24091;DHT22;12272;52.426;17.100;2023-11-21T22:37:41;3.40;99.90
24091;DHT22;12272;52.426;17.100;2023-11-21T22:42:44;3.20;99.90
24091;DHT22;12272;52.426;17.100;2023-11-21T22:47:47;2.80;99.90
24091;DHT22;12272;52.426;17.100;2023-11-21T22:52:50;2.90;99.90
24091;DHT22;12272;52.426;17.100;2023-11-21T22:57:55;2.60;99.90
24091;DHT22;12272;52.426;17.100;2023-11-21T23:02:57;2.70;99.90
24091;DHT22;12272;52.426;17.100;2023-11-21T23:08:00;2.80;99.90
24091;DHT22;12272;52.426;17.100;2023-11-21T23:13:04;2.90;99.90
24091;DHT22;12272;52.426;17.100;2023-11-21T23:18:06;2.40;99.90
24091;DHT22;12272;52.426;17.100;2023-11-21T23:23:11;2.70;99.90
24091;DHT22;12272;52.426;17.100;2023-11-21T23:28:13;2.60;99.90
24091;DHT22;12272;52.426;17.100;2023-11-21T23:33:17;2.50;99.90
24091;DHT22;12272;52.426;17.100;2023-11-21T23:38:21;2.30;99.90
24091;DHT22;12272;52.426;17.100;2023-11-21T23:43:24;2.40;99.90
24091;DHT22;12272;52.426;17.100;2023-11-21T23:48:28;2.40;99.90
24091;DHT22;12272;52.426;17.100;2023-11-21T23:53:31;2.80;99.90
24091;DHT22;12272;52.426;17.100;2023-11-21T23:58:34;2.50;99.90
